sensor_id;sensor_type;location;lat;lon;timestamp;pressure;altitude;pressure_sealevel;temperature
24201;BMP280;2801;50.972;7.856;2022-12-07T00:01:39;97512.53;;;4.21
24201;BMP280;2801;50.972;7.856;2022-12-07T00:04:11;97508.28;;;4.20
24201;BMP280;2801;50.972;7.856;2022-12-07T00:06:47;97506.41;;;4.21
24201;BMP280;2801;50.972;7.856;2022-12-07T00:09:17;97493.50;;;4.14
24201;BMP280;2801;50.972;7.856;2022-12-07T00:11:48;97508.00;;;4.22
24201;BMP280;2801;50.972;7.856;2022-12-07T00:14:16;97508.00;;;4.22
24201;BMP280;2801;50.972;7.856;2022-12-07T00:16:44;97505.88;;;4.24
24201;BMP280;2801;50.972;7.856;2022-12-07T00:19:13;97497.09;;;4.23
24201;BMP280;2801;50.972;7.856;2022-12-07T00:21:41;97501.84;;;4.26
24201;BMP280;2801;50.972;7.856;2022-12-07T00:24:09;97505.31;;;4.27
24201;BMP280;2801;50.972;7.856;2022-12-07T00:26:40;97494.97;;;4.25
24201;BMP280;2801;50.972;7.856;2022-12-07T00:29:20;97499.47;;;4.25
24201;BMP280;2801;50.972;7.856;2022-12-07T00:31:48;97498.91;;;4.28
24201;BMP280;2801;50.972;7.856;2022-12-07T00:34:18;97502.06;;;4.30
24201;BMP280;2801;50.972;7.856;2022-12-07T00:36:46;97493.91;;;4.26
24201;BMP280;2801;50.972;7.856;2022-12-07T00:39:13;97501.56;;;4.28
24201;BMP280;2801;50.972;7.856;2022-12-07T00:41:40;97491.44;;;4.30
24201;BMP280;2801;50.972;7.856;2022-12-07T00:44:07;97485.09;;;4.31
24201;BMP280;2801;50.972;7.856;2022-12-07T00:46:34;97480.28;;;4.33
24201;BMP280;2801;50.972;7.856;2022-12-07T00:49:01;97480.00;;;4.34
24201;BMP280;2801;50.972;7.856;2022-12-07T00:51:28;97478.91;;;4.35
24201;BMP280;2801;50.972;7.856;2022-12-07T00:53:55;97474.41;;;4.36
24201;BMP280;2801;50.972;7.856;2022-12-07T00:56:27;97460.19;;;4.27
24201;BMP280;2801;50.972;7.856;2022-12-07T00:59:00;97478.72;;;4.32
24201;BMP280;2801;50.972;7.856;2022-12-07T01:01:31;97475.22;;;4.36
24201;BMP280;2801;50.972;7.856;2022-12-07T01:03:59;97469.09;;;4.36
24201;BMP280;2801;50.972;7.856;2022-12-07T01:06:28;97476.78;;;4.37
24201;BMP280;2801;50.972;7.856;2022-12-07T01:08:55;97462.22;;;4.35
24201;BMP280;2801;50.972;7.856;2022-12-07T01:11:26;97466.38;;;4.41
24201;BMP280;2801;50.972;7.856;2022-12-07T01:13:55;97466.97;;;4.38
24201;BMP280;2801;50.972;7.856;2022-12-07T01:16:26;97463.72;;;4.41
24201;BMP280;2801;50.972;7.856;2022-12-07T01:18:55;97463.72;;;4.41
24201;BMP280;2801;50.972;7.856;2022-12-07T01:21:29;97466.91;;;4.43
24201;BMP280;2801;50.972;7.856;2022-12-07T01:23:57;97463.97;;;4.44
24201;BMP280;2801;50.972;7.856;2022-12-07T01:26:25;97455.56;;;4.37
24201;BMP280;2801;50.972;7.856;2022-12-07T01:28:53;97467.41;;;4.45
24201;BMP280;2801;50.972;7.856;2022-12-07T01:31:25;97466.09;;;4.42
24201;BMP280;2801;50.972;7.856;2022-12-07T01:33:56;97466.09;;;4.42
24201;BMP280;2801;50.972;7.856;2022-12-07T01:36:29;97472.16;;;4.48
24201;BMP280;2801;50.972;7.856;2022-12-07T01:39:00;97475.31;;;4.50
24201;BMP280;2801;50.972;7.856;2022-12-07T01:41:35;97475.59;;;4.48
24201;BMP280;2801;50.972;7.856;2022-12-07T01:44:26;97475.59;;;4.48
24201;BMP280;2801;50.972;7.856;2022-12-07T01:47:00;97474.53;;;4.49
24201;BMP280;2801;50.972;7.856;2022-12-07T01:52:31;97468.94;;;4.51
24201;BMP280;2801;50.972;7.856;2022-12-07T01:55:04;97463.91;;;4.49
24201;BMP280;2801;50.972;7.856;2022-12-07T01:57:40;97456.50;;;4.46
24201;BMP280;2801;50.972;7.856;2022-12-07T02:00:09;97460.47;;;4.49
24201;BMP280;2801;50.972;7.856;2022-12-07T02:02:43;97463.34;;;4.52
24201;BMP280;2801;50.972;7.856;2022-12-07T02:05:14;97460.41;;;4.54
24201;BMP280;2801;50.972;7.856;2022-12-07T02:07:41;97463.06;;;4.54
24201;BMP280;2801;50.972;7.856;2022-12-07T02:10:29;97459.03;;;4.56
24201;BMP280;2801;50.972;7.856;2022-12-07T02:13:12;97457.19;;;4.57
24201;BMP280;2801;50.972;7.856;2022-12-07T02:18:48;97460.13;;;4.55
24201;BMP280;2801;50.972;7.856;2022-12-07T02:24:25;97453.53;;;4.53
24201;BMP280;2801;50.972;7.856;2022-12-07T02:30:35;97452.44;;;4.54
24201;BMP280;2801;50.972;7.856;2022-12-07T02:33:16;97457.19;;;4.57
24201;BMP280;2801;50.972;7.856;2022-12-07T02:38:48;97451.06;;;4.56
24201;BMP280;2801;50.972;7.856;2022-12-07T02:41:27;97454.53;;;4.57
24201;BMP280;2801;50.972;7.856;2022-12-07T02:44:03;97440.97;;;4.58
24201;BMP280;2801;50.972;7.856;2022-12-07T02:46:39;97442.84;;;4.58
24201;BMP280;2801;50.972;7.856;2022-12-07T02:49:08;97444.94;;;4.61
24201;BMP280;2801;50.972;7.856;2022-12-07T02:51:41;97438.59;;;4.57
24201;BMP280;2801;50.972;7.856;2022-12-07T02:54:15;97447.88;;;4.59
24201;BMP280;2801;50.972;7.856;2022-12-07T02:56:52;97437.72;;;4.61
24201;BMP280;2801;50.972;7.856;2022-12-07T02:59:57;97435.34;;;4.60
24201;BMP280;2801;50.972;7.856;2022-12-07T03:16:11;97423.69;;;4.61
24201;BMP280;2801;50.972;7.856;2022-12-07T03:18:52;97422.31;;;4.63
24201;BMP280;2801;50.972;7.856;2022-12-07T03:21:32;97423.09;;;4.64
24201;BMP280;2801;50.972;7.856;2022-12-07T03:24:04;97425.47;;;4.65
24201;BMP280;2801;50.972;7.856;2022-12-07T03:26:42;97426.25;;;4.66
24201;BMP280;2801;50.972;7.856;2022-12-07T03:29:30;97423.59;;;4.66
24201;BMP280;2801;50.972;7.856;2022-12-07T03:32:06;97419.16;;;4.61
24201;BMP280;2801;50.972;7.856;2022-12-07T03:35:12;97432.38;;;4.66
24201;BMP280;2801;50.972;7.856;2022-12-07T03:38:10;97426.53;;;4.64
24201;BMP280;2801;50.972;7.856;2022-12-07T03:43:33;97424.41;;;4.66
24201;BMP280;2801;50.972;7.856;2022-12-07T03:52:11;97420.16;;;4.65
24201;BMP280;2801;50.972;7.856;2022-12-07T03:54:53;97421.25;;;4.64
24201;BMP280;2801;50.972;7.856;2022-12-07T03:57:25;97426.25;;;4.66
24201;BMP280;2801;50.972;7.856;2022-12-07T03:59:55;97420.97;;;4.66
24201;BMP280;2801;50.972;7.856;2022-12-07T04:02:25;97424.13;;;4.68
24201;BMP280;2801;50.972;7.856;2022-12-07T04:04:55;97420.66;;;4.67
24201;BMP280;2801;50.972;7.856;2022-12-07T04:07:22;97427.06;;;4.66
24201;BMP280;2801;50.972;7.856;2022-12-07T04:09:49;97418.59;;;4.64
24201;BMP280;2801;50.972;7.856;2022-12-07T04:12:16;97423.31;;;4.67
24201;BMP280;2801;50.972;7.856;2022-12-07T04:14:42;97424.41;;;4.66
24201;BMP280;2801;50.972;7.856;2022-12-07T04:17:09;97427.34;;;4.65
24201;BMP280;2801;50.972;7.856;2022-12-07T04:19:36;97427.56;;;4.68
24201;BMP280;2801;50.972;7.856;2022-12-07T04:22:07;97426.78;;;4.68
24201;BMP280;2801;50.972;7.856;2022-12-07T04:24:34;97425.91;;;4.72
24201;BMP280;2801;50.972;7.856;2022-12-07T04:27:01;97425.69;;;4.69
24201;BMP280;2801;50.972;7.856;2022-12-07T04:29:28;97421.97;;;4.70
24201;BMP280;2801;50.972;7.856;2022-12-07T04:31:55;97420.66;;;4.67
24201;BMP280;2801;50.972;7.856;2022-12-07T04:34:22;97428.06;;;4.70
24201;BMP280;2801;50.972;7.856;2022-12-07T04:36:49;97420.38;;;4.69
24201;BMP280;2801;50.972;7.856;2022-12-07T04:39:27;97424.06;;;4.73
24201;BMP280;2801;50.972;7.856;2022-12-07T04:41:55;97428.84;;;4.71
24201;BMP280;2801;50.972;7.856;2022-12-07T04:44:24;97427.78;;;4.72
24201;BMP280;2801;50.972;7.856;2022-12-07T04:46:52;97438.69;;;4.70
24201;BMP280;2801;50.972;7.856;2022-12-07T04:49:20;97436.09;;;4.65
24201;BMP280;2801;50.972;7.856;2022-12-07T04:51:47;97438.31;;;4.58
24201;BMP280;2801;50.972;7.856;2022-12-07T04:54:15;97440.28;;;4.48
24201;BMP280;2801;50.972;7.856;2022-12-07T04:56:43;97437.47;;;4.39
24201;BMP280;2801;50.972;7.856;2022-12-07T04:59:14;97434.41;;;4.32
24201;BMP280;2801;50.972;7.856;2022-12-07T05:01:42;97432.94;;;4.21
24201;BMP280;2801;50.972;7.856;2022-12-07T05:04:09;97433.47;;;4.18
24201;BMP280;2801;50.972;7.856;2022-12-07T05:06:36;97431.09;;;4.17
24201;BMP280;2801;50.972;7.856;2022-12-07T05:09:04;97424.78;;;4.13
24201;BMP280;2801;50.972;7.856;2022-12-07T05:11:31;97423.72;;;4.14
24201;BMP280;2801;50.972;7.856;2022-12-07T05:14:13;97425.00;;;4.16
24201;BMP280;2801;50.972;7.856;2022-12-07T05:16:42;97426.59;;;4.17
24201;BMP280;2801;50.972;7.856;2022-12-07T05:19:10;97422.88;;;4.18
24201;BMP280;2801;50.972;7.856;2022-12-07T05:21:38;97430.28;;;4.21
24201;BMP280;2801;50.972;7.856;2022-12-07T05:24:06;97420.50;;;4.17
24201;BMP280;2801;50.972;7.856;2022-12-07T05:26:34;97428.75;;;4.15
24201;BMP280;2801;50.972;7.856;2022-12-07T05:29:01;97428.75;;;4.15
24201;BMP280;2801;50.972;7.856;2022-12-07T05:31:28;97417.19;;;4.06
24201;BMP280;2801;50.972;7.856;2022-12-07T05:33:55;97424.59;;;4.09
24201;BMP280;2801;50.972;7.856;2022-12-07T05:36:22;97431.19;;;4.12
24201;BMP280;2801;50.972;7.856;2022-12-07T05:38:49;97421.84;;;4.14
24201;BMP280;2801;50.972;7.856;2022-12-07T05:41:18;97425.59;;;4.13
24201;BMP280;2801;50.972;7.856;2022-12-07T05:44:05;97427.72;;;4.11
24201;BMP280;2801;50.972;7.856;2022-12-07T05:46:33;97430.38;;;4.11
24201;BMP280;2801;50.972;7.856;2022-12-07T05:49:00;97437.53;;;4.11
24201;BMP280;2801;50.972;7.856;2022-12-07T05:51:27;97433.31;;;4.10
24201;BMP280;2801;50.972;7.856;2022-12-07T05:53:54;97421.06;;;4.14
24201;BMP280;2801;50.972;7.856;2022-12-07T05:56:21;97426.66;;;4.12
24201;BMP280;2801;50.972;7.856;2022-12-07T05:58:49;97423.16;;;4.17
24201;BMP280;2801;50.972;7.856;2022-12-07T06:01:34;97433.22;;;4.20
24201;BMP280;2801;50.972;7.856;2022-12-07T06:04:01;97426.03;;;4.20
24201;BMP280;2801;50.972;7.856;2022-12-07T06:06:28;97417.78;;;4.22
24201;BMP280;2801;50.972;7.856;2022-12-07T06:08:55;97426.75;;;4.26
24201;BMP280;2801;50.972;7.856;2022-12-07T06:11:21;97429.13;;;4.27
24201;BMP280;2801;50.972;7.856;2022-12-07T06:14:07;97427.56;;;4.26
24201;BMP280;2801;50.972;7.856;2022-12-07T06:16:38;97428.84;;;4.29
24201;BMP280;2801;50.972;7.856;2022-12-07T06:19:05;97422.53;;;4.25
24201;BMP280;2801;50.972;7.856;2022-12-07T06:21:32;97431.00;;;4.27
24201;BMP280;2801;50.972;7.856;2022-12-07T06:23:58;97425.00;;;4.16
24201;BMP280;2801;50.972;7.856;2022-12-07T06:26:25;97437.66;;;4.24
24201;BMP280;2801;50.972;7.856;2022-12-07T06:28:52;97437.38;;;4.26
24201;BMP280;2801;50.972;7.856;2022-12-07T06:31:19;97437.97;;;4.23
24201;BMP280;2801;50.972;7.856;2022-12-07T06:33:46;97433.69;;;4.22
24201;BMP280;2801;50.972;7.856;2022-12-07T06:36:13;97425.00;;;4.16
24201;BMP280;2801;50.972;7.856;2022-12-07T06:38:40;97436.88;;;4.24
24201;BMP280;2801;50.972;7.856;2022-12-07T06:41:07;97441.63;;;4.27
24201;BMP280;2801;50.972;7.856;2022-12-07T06:43:34;97436.59;;;4.25
24201;BMP280;2801;50.972;7.856;2022-12-07T06:46:01;97447.41;;;4.29
24201;BMP280;2801;50.972;7.856;2022-12-07T06:48:27;97441.34;;;4.28
24201;BMP280;2801;50.972;7.856;2022-12-07T06:50:54;97441.34;;;4.28
24201;BMP280;2801;50.972;7.856;2022-12-07T06:53:22;97441.91;;;4.25
24201;BMP280;2801;50.972;7.856;2022-12-07T06:55:49;97444.00;;;4.28
24201;BMP280;2801;50.972;7.856;2022-12-07T06:58:16;97440.31;;;4.24
24201;BMP280;2801;50.972;7.856;2022-12-07T07:00:44;97442.47;;;4.22
24201;BMP280;2801;50.972;7.856;2022-12-07T07:03:11;97435.31;;;4.23
24201;BMP280;2801;50.972;7.856;2022-12-07T07:05:38;97427.16;;;4.14
24201;BMP280;2801;50.972;7.856;2022-12-07T07:08:05;97445.91;;;4.23
24201;BMP280;2801;50.972;7.856;2022-12-07T07:10:49;97447.50;;;4.24
24201;BMP280;2801;50.972;7.856;2022-12-07T07:13:16;97449.06;;;4.25
24201;BMP280;2801;50.972;7.856;2022-12-07T07:15:43;97445.31;;;4.26
24201;BMP280;2801;50.972;7.856;2022-12-07T07:18:11;97444.56;;;4.25
24201;BMP280;2801;50.972;7.856;2022-12-07T07:20:38;97457.03;;;4.25
24201;BMP280;2801;50.972;7.856;2022-12-07T07:23:06;97453.88;;;4.23
24201;BMP280;2801;50.972;7.856;2022-12-07T07:25:34;97459.19;;;4.23
24201;BMP280;2801;50.972;7.856;2022-12-07T07:28:01;97450.91;;;4.24
24201;BMP280;2801;50.972;7.856;2022-12-07T07:30:28;97454.91;;;4.27
24201;BMP280;2801;50.972;7.856;2022-12-07T07:33:02;97453.25;;;4.31
24201;BMP280;2801;50.972;7.856;2022-12-07T07:35:32;97443.69;;;4.30
24201;BMP280;2801;50.972;7.856;2022-12-07T07:38:00;97451.59;;;4.35
24201;BMP280;2801;50.972;7.856;2022-12-07T07:40:28;97450.81;;;4.34
24201;BMP280;2801;50.972;7.856;2022-12-07T07:42:58;97445.75;;;4.38
24201;BMP280;2801;50.972;7.856;2022-12-07T07:45:26;97453.19;;;4.36
24201;BMP280;2801;50.972;7.856;2022-12-07T07:47:54;97452.91;;;4.37
24201;BMP280;2801;50.972;7.856;2022-12-07T07:50:21;97450.47;;;4.41
24201;BMP280;2801;50.972;7.856;2022-12-07T07:52:49;97447.59;;;4.37
24201;BMP280;2801;50.972;7.856;2022-12-07T07:55:16;97444.94;;;4.37
24201;BMP280;2801;50.972;7.856;2022-12-07T07:57:43;97442.50;;;4.41
24201;BMP280;2801;50.972;7.856;2022-12-07T08:00:16;97438.63;;;4.33
24201;BMP280;2801;50.972;7.856;2022-12-07T08:02:44;97448.31;;;4.43
24201;BMP280;2801;50.972;7.856;2022-12-07T08:05:12;97444.31;;;4.45
24201;BMP280;2801;50.972;7.856;2022-12-07T08:07:40;97453.00;;;4.51
24201;BMP280;2801;50.972;7.856;2022-12-07T08:10:12;97460.97;;;4.51
24201;BMP280;2801;50.972;7.856;2022-12-07T08:12:41;97466.00;;;4.52
24201;BMP280;2801;50.972;7.856;2022-12-07T08:15:29;97466.56;;;4.49
24201;BMP280;2801;50.972;7.856;2022-12-07T08:17:57;97461.34;;;4.39
24201;BMP280;2801;50.972;7.856;2022-12-07T08:20:25;97465.97;;;4.34
24201;BMP280;2801;50.972;7.856;2022-12-07T08:22:52;97466.28;;;4.27
24201;BMP280;2801;50.972;7.856;2022-12-07T08:25:19;97473.41;;;4.32
24201;BMP280;2801;50.972;7.856;2022-12-07T08:27:46;97474.03;;;4.24
24201;BMP280;2801;50.972;7.856;2022-12-07T08:30:13;97473.78;;;4.20
24201;BMP280;2801;50.972;7.856;2022-12-07T08:32:40;97472.75;;;4.16
24201;BMP280;2801;50.972;7.856;2022-12-07T08:35:08;97471.94;;;4.21
24201;BMP280;2801;50.972;7.856;2022-12-07T08:37:35;97466.91;;;4.19
24201;BMP280;2801;50.972;7.856;2022-12-07T08:40:03;97473.47;;;4.27
24201;BMP280;2801;50.972;7.856;2022-12-07T08:42:31;97470.75;;;4.32
24201;BMP280;2801;50.972;7.856;2022-12-07T08:45:11;97472.56;;;4.36
24201;BMP280;2801;50.972;7.856;2022-12-07T08:47:45;97477.81;;;4.41
24201;BMP280;2801;50.972;7.856;2022-12-07T08:50:13;97471.13;;;4.44
24201;BMP280;2801;50.972;7.856;2022-12-07T08:52:41;97470.66;;;4.42
24201;BMP280;2801;50.972;7.856;2022-12-07T08:55:11;97473.22;;;4.47
24201;BMP280;2801;50.972;7.856;2022-12-07T08:57:39;97474.81;;;4.48
24201;BMP280;2801;50.972;7.856;2022-12-07T09:00:07;97467.06;;;4.51
24201;BMP280;2801;50.972;7.856;2022-12-07T09:02:34;97479.19;;;4.57
24201;BMP280;2801;50.972;7.856;2022-12-07T09:05:02;97473.97;;;4.52
24201;BMP280;2801;50.972;7.856;2022-12-07T09:07:32;97482.41;;;4.54
24201;BMP280;2801;50.972;7.856;2022-12-07T09:10:00;97479.47;;;4.56
24201;BMP280;2801;50.972;7.856;2022-12-07T09:12:28;97483.22;;;4.55
24201;BMP280;2801;50.972;7.856;2022-12-07T09:14:55;97477.41;;;4.53
24201;BMP280;2801;50.972;7.856;2022-12-07T09:17:22;97479.19;;;4.57
24201;BMP280;2801;50.972;7.856;2022-12-07T09:19:49;97485.03;;;4.59
24201;BMP280;2801;50.972;7.856;2022-12-07T09:22:16;97481.00;;;4.62
24201;BMP280;2801;50.972;7.856;2022-12-07T09:24:43;97480.22;;;4.61
24201;BMP280;2801;50.972;7.856;2022-12-07T09:27:12;97481.50;;;4.64
24201;BMP280;2801;50.972;7.856;2022-12-07T09:29:39;97480.38;;;4.70
24201;BMP280;2801;50.972;7.856;2022-12-07T09:32:05;97480.53;;;4.78
24201;BMP280;2801;50.972;7.856;2022-12-07T09:34:37;97476.72;;;4.84
24201;BMP280;2801;50.972;7.856;2022-12-07T09:37:04;97483.00;;;4.93
24201;BMP280;2801;50.972;7.856;2022-12-07T09:39:31;97476.47;;;5.04
24201;BMP280;2801;50.972;7.856;2022-12-07T09:42:02;97481.78;;;5.04
24201;BMP280;2801;50.972;7.856;2022-12-07T09:44:31;97469.16;;;4.96
24201;BMP280;2801;50.972;7.856;2022-12-07T09:46:58;97477.97;;;5.10
24201;BMP280;2801;50.972;7.856;2022-12-07T09:49:31;97481.16;;;5.12
24201;BMP280;2801;50.972;7.856;2022-12-07T09:52:27;97476.63;;;5.13
24201;BMP280;2801;50.972;7.856;2022-12-07T09:55:01;97472.09;;;5.13
24201;BMP280;2801;50.972;7.856;2022-12-07T09:57:32;97477.84;;;5.20
24201;BMP280;2801;50.972;7.856;2022-12-07T10:00:12;97474.38;;;5.20
24201;BMP280;2801;50.972;7.856;2022-12-07T10:03:08;97467.28;;;5.15
24201;BMP280;2801;50.972;7.856;2022-12-07T10:05:43;97466.13;;;5.03
24201;BMP280;2801;50.972;7.856;2022-12-07T10:08:13;97464.34;;;4.98
24201;BMP280;2801;50.972;7.856;2022-12-07T10:10:41;97471.81;;;4.96
24201;BMP280;2801;50.972;7.856;2022-12-07T10:13:21;97462.88;;;4.87
24201;BMP280;2801;50.972;7.856;2022-12-07T10:15:51;97464.47;;;4.88
24201;BMP280;2801;50.972;7.856;2022-12-07T10:21:17;97463.75;;;4.83
24201;BMP280;2801;50.972;7.856;2022-12-07T10:26:50;97462.72;;;4.79
24201;BMP280;2801;50.972;7.856;2022-12-07T10:29:21;97452.91;;;4.79
24201;BMP280;2801;50.972;7.856;2022-12-07T10:34:42;97445.09;;;4.88
24201;BMP280;2801;50.972;7.856;2022-12-07T10:37:20;97448.19;;;4.95
24201;BMP280;2801;50.972;7.856;2022-12-07T10:42:30;97443.72;;;5.09
24201;BMP280;2801;50.972;7.856;2022-12-07T10:45:13;97437.63;;;5.08
24201;BMP280;2801;50.972;7.856;2022-12-07T10:51:12;97429.28;;;5.15
24201;BMP280;2801;50.972;7.856;2022-12-07T10:59:55;97426.97;;;5.27
24201;BMP280;2801;50.972;7.856;2022-12-07T11:03:05;97426.13;;;5.31
24201;BMP280;2801;50.972;7.856;2022-12-07T11:05:46;97424.75;;;5.34
24201;BMP280;2801;50.972;7.856;2022-12-07T11:14:52;97414.91;;;5.34
24201;BMP280;2801;50.972;7.856;2022-12-07T11:17:40;97411.16;;;5.35
24201;BMP280;2801;50.972;7.856;2022-12-07T11:20:43;97395.72;;;5.37
24201;BMP280;2801;50.972;7.856;2022-12-07T11:32:20;97395.06;;;5.45
24201;BMP280;2801;50.972;7.856;2022-12-07T11:37:30;97387.72;;;5.69
24201;BMP280;2801;50.972;7.856;2022-12-07T11:45:00;97380.97;;;5.90
24201;BMP280;2801;50.972;7.856;2022-12-07T11:47:35;97373.47;;;6.06
24201;BMP280;2801;50.972;7.856;2022-12-07T11:50:34;97372.72;;;6.05
24201;BMP280;2801;50.972;7.856;2022-12-07T11:53:09;97370.53;;;6.07
24201;BMP280;2801;50.972;7.856;2022-12-07T11:56:08;97360.59;;;5.99
24201;BMP280;2801;50.972;7.856;2022-12-07T11:58:53;97366.41;;;6.01
24201;BMP280;2801;50.972;7.856;2022-12-07T12:06:44;97367.00;;;5.98
24201;BMP280;2801;50.972;7.856;2022-12-07T12:10:13;97369.44;;;5.95
24201;BMP280;2801;50.972;7.856;2022-12-07T12:21:34;97374.34;;;5.10
24201;BMP280;2801;50.972;7.856;2022-12-07T12:24:19;97359.59;;;5.04
24201;BMP280;2801;50.972;7.856;2022-12-07T12:27:05;97355.41;;;5.17
24201;BMP280;2801;50.972;7.856;2022-12-07T12:29:40;97346.81;;;5.20
24201;BMP280;2801;50.972;7.856;2022-12-07T12:32:23;97346.25;;;5.23
24201;BMP280;2801;50.972;7.856;2022-12-07T12:45:28;97338.13;;;5.46
24201;BMP280;2801;50.972;7.856;2022-12-07T12:51:37;97336.47;;;5.50
24201;BMP280;2801;50.972;7.856;2022-12-07T12:57:01;97334.97;;;5.44
24201;BMP280;2801;50.972;7.856;2022-12-07T12:59:41;97326.81;;;5.41
24201;BMP280;2801;50.972;7.856;2022-12-07T13:02:28;97325.53;;;5.38
24201;BMP280;2801;50.972;7.856;2022-12-07T13:15:46;97330.91;;;5.33
24201;BMP280;2801;50.972;7.856;2022-12-07T13:20:57;97325.22;;;5.40
24201;BMP280;2801;50.972;7.856;2022-12-07T13:29:15;97327.28;;;5.43
24201;BMP280;2801;50.972;7.856;2022-12-07T13:31:48;97327.38;;;5.38
24201;BMP280;2801;50.972;7.856;2022-12-07T13:34:37;97333.09;;;5.31
24201;BMP280;2801;50.972;7.856;2022-12-07T13:37:26;97317.09;;;5.18
24201;BMP280;2801;50.972;7.856;2022-12-07T13:40:17;97321.91;;;5.16
24201;BMP280;2801;50.972;7.856;2022-12-07T13:42:45;97326.63;;;5.05
24201;BMP280;2801;50.972;7.856;2022-12-07T13:45:31;97324.63;;;4.97
24201;BMP280;2801;50.972;7.856;2022-12-07T13:48:47;97316.94;;;4.96
24201;BMP280;2801;50.972;7.856;2022-12-07T13:51:22;97313.06;;;4.88
24201;BMP280;2801;50.972;7.856;2022-12-07T13:53:58;97311.50;;;4.87
24201;BMP280;2801;50.972;7.856;2022-12-07T13:56:34;97292.84;;;4.74
24201;BMP280;2801;50.972;7.856;2022-12-07T13:59:02;97298.28;;;4.82
24201;BMP280;2801;50.972;7.856;2022-12-07T14:01:31;97310.88;;;4.77
24201;BMP280;2801;50.972;7.856;2022-12-07T14:04:32;97306.94;;;4.74
24201;BMP280;2801;50.972;7.856;2022-12-07T14:07:00;97308.50;;;4.75
24201;BMP280;2801;50.972;7.856;2022-12-07T14:09:29;97294.50;;;4.70
24201;BMP280;2801;50.972;7.856;2022-12-07T14:11:57;97293.41;;;4.71
24201;BMP280;2801;50.972;7.856;2022-12-07T14:14:31;97306.22;;;4.69
24201;BMP280;2801;50.972;7.856;2022-12-07T14:17:24;97297.72;;;4.67
24201;BMP280;2801;50.972;7.856;2022-12-07T14:19:57;97295.88;;;4.67
24201;BMP280;2801;50.972;7.856;2022-12-07T14:22:38;97293.72;;;4.69
24201;BMP280;2801;50.972;7.856;2022-12-07T14:25:23;97300.09;;;4.68
24201;BMP280;2801;50.972;7.856;2022-12-07T14:27:54;97290.00;;;4.70
24201;BMP280;2801;50.972;7.856;2022-12-07T14:30:30;97290.19;;;4.74
24201;BMP280;2801;50.972;7.856;2022-12-07T14:33:03;97291.28;;;4.73
24201;BMP280;2801;50.972;7.856;2022-12-07T14:35:31;97274.41;;;4.64
24201;BMP280;2801;50.972;7.856;2022-12-07T14:37:59;97273.06;;;4.66
24201;BMP280;2801;50.972;7.856;2022-12-07T14:40:28;97280.84;;;4.76
24201;BMP280;2801;50.972;7.856;2022-12-07T14:43:17;97273.19;;;4.75
24201;BMP280;2801;50.972;7.856;2022-12-07T14:45:44;97279.00;;;4.77
24201;BMP280;2801;50.972;7.856;2022-12-07T14:48:13;97268.84;;;4.79
24201;BMP280;2801;50.972;7.856;2022-12-07T14:51:01;97267.28;;;4.78
24201;BMP280;2801;50.972;7.856;2022-12-07T14:53:51;97269.47;;;4.76
24201;BMP280;2801;50.972;7.856;2022-12-07T14:56:26;97277.91;;;4.78
24201;BMP280;2801;50.972;7.856;2022-12-07T14:58:54;97276.34;;;4.77
24201;BMP280;2801;50.972;7.856;2022-12-07T15:01:21;97278.41;;;4.80
24201;BMP280;2801;50.972;7.856;2022-12-07T15:03:47;97272.59;;;4.78
24201;BMP280;2801;50.972;7.856;2022-12-07T15:06:17;97277.44;;;4.76
24201;BMP280;2801;50.972;7.856;2022-12-07T15:08:45;97263.88;;;4.77
24201;BMP280;2801;50.972;7.856;2022-12-07T15:11:14;97259.31;;;4.78
24201;BMP280;2801;50.972;7.856;2022-12-07T15:13:42;97256.47;;;4.74
24201;BMP280;2801;50.972;7.856;2022-12-07T15:16:27;97254.59;;;4.75
24201;BMP280;2801;50.972;7.856;2022-12-07T15:19:18;97258.34;;;4.74
24201;BMP280;2801;50.972;7.856;2022-12-07T15:21:56;97260.50;;;4.72
24201;BMP280;2801;50.972;7.856;2022-12-07T15:24:23;97255.75;;;4.69
24201;BMP280;2801;50.972;7.856;2022-12-07T15:26:51;97262.66;;;4.70
24201;BMP280;2801;50.972;7.856;2022-12-07T15:29:18;97254.47;;;4.66
24201;BMP280;2801;50.972;7.856;2022-12-07T15:31:51;97261.13;;;4.64
24201;BMP280;2801;50.972;7.856;2022-12-07T15:34:27;97259.38;;;4.59
24201;BMP280;2801;50.972;7.856;2022-12-07T15:37:03;97257.00;;;4.58
24201;BMP280;2801;50.972;7.856;2022-12-07T15:39:30;97267.69;;;4.53
24201;BMP280;2801;50.972;7.856;2022-12-07T15:41:57;97259.75;;;4.53
24201;BMP280;2801;50.972;7.856;2022-12-07T15:44:24;97256.28;;;4.52
24201;BMP280;2801;50.972;7.856;2022-12-07T15:47:10;97235.56;;;4.36
24201;BMP280;2801;50.972;7.856;2022-12-07T15:49:37;97255.94;;;4.40
24201;BMP280;2801;50.972;7.856;2022-12-07T15:52:03;97261.31;;;4.35
24201;BMP280;2801;50.972;7.856;2022-12-07T15:54:31;97260.59;;;4.30
24201;BMP280;2801;50.972;7.856;2022-12-07T15:56:59;97266.53;;;4.22
24201;BMP280;2801;50.972;7.856;2022-12-07T15:59:27;97257.38;;;4.14
24201;BMP280;2801;50.972;7.856;2022-12-07T16:01:55;97262.25;;;4.07
24201;BMP280;2801;50.972;7.856;2022-12-07T16:04:22;97256.22;;;4.02
24201;BMP280;2801;50.972;7.856;2022-12-07T16:06:49;97256.00;;;3.98
24201;BMP280;2801;50.972;7.856;2022-12-07T16:09:18;97258.72;;;3.93
24201;BMP280;2801;50.972;7.856;2022-12-07T16:11:45;97239.50;;;3.82
24201;BMP280;2801;50.972;7.856;2022-12-07T16:14:12;97251.75;;;3.78
24201;BMP280;2801;50.972;7.856;2022-12-07T16:16:39;97247.56;;;3.72
24201;BMP280;2801;50.972;7.856;2022-12-07T16:19:08;97237.31;;;3.66
24201;BMP280;2801;50.972;7.856;2022-12-07T16:21:35;97249.56;;;3.62
24201;BMP280;2801;50.972;7.856;2022-12-07T16:24:03;97252.00;;;3.58
24201;BMP280;2801;50.972;7.856;2022-12-07T16:26:30;97256.63;;;3.48
24201;BMP280;2801;50.972;7.856;2022-12-07T16:28:57;97249.00;;;3.41
24201;BMP280;2801;50.972;7.856;2022-12-07T16:31:26;97242.41;;;3.39
24201;BMP280;2801;50.972;7.856;2022-12-07T16:33:56;97251.16;;;3.39
24201;BMP280;2801;50.972;7.856;2022-12-07T16:36:25;97232.66;;;3.34
24201;BMP280;2801;50.972;7.856;2022-12-07T16:39:14;97237.84;;;3.44
24201;BMP280;2801;50.972;7.856;2022-12-07T16:41:41;97254.97;;;3.52
24201;BMP280;2801;50.972;7.856;2022-12-07T16:44:11;97247.75;;;3.57
24201;BMP280;2801;50.972;7.856;2022-12-07T16:46:40;97233.66;;;3.62
24201;BMP280;2801;50.972;7.856;2022-12-07T16:49:13;97234.09;;;3.69
24201;BMP280;2801;50.972;7.856;2022-12-07T16:51:41;97229.75;;;3.78
24201;BMP280;2801;50.972;7.856;2022-12-07T16:54:11;97226.81;;;3.79
24201;BMP280;2801;50.972;7.856;2022-12-07T16:56:39;97222.78;;;3.82
24201;BMP280;2801;50.972;7.856;2022-12-07T16:59:06;97224.69;;;3.81
24201;BMP280;2801;50.972;7.856;2022-12-07T17:01:33;97223.88;;;3.81
24201;BMP280;2801;50.972;7.856;2022-12-07T17:04:01;97219.84;;;3.83
24201;BMP280;2801;50.972;7.856;2022-12-07T17:06:29;97223.31;;;3.84
24201;BMP280;2801;50.972;7.856;2022-12-07T17:08:57;97224.31;;;3.88
24201;BMP280;2801;50.972;7.856;2022-12-07T17:11:29;97227.16;;;3.91
24201;BMP280;2801;50.972;7.856;2022-12-07T17:13:59;97227.41;;;3.95
24201;BMP280;2801;50.972;7.856;2022-12-07T17:16:45;97215.72;;;3.96